GMAD/AGA METAR and TAF weather

Enter ICAO airport designator
Station Type Date Time Source
GMAD METAR 2019/10/21 04:30 UTC NOAA

GMAD 210430Z 00000KT CAVOK 13/11 Q1012 NOSIG


Station Type Date Time Source
GMAD Decoded METAR 2019/10/21 04:30 UTC NOAA

Agadir Al Massira, Morocco (GMAD) 30-20N 009-24W 74M
Oct 21, 2019 - 12:30 AM EDT / 2019.10.21 0430 UTC
Wind: Calm:0
Visibility: greater than 7 mile(s):0
Temperature: 55 F (13 C)
Dew Point: 51 F (11 C)
Relative Humidity: 87%
Pressure (altimeter): 29.88 in. Hg (1012 hPa)
ob: GMAD 210430Z 00000KT CAVOK 13/11 Q1012 NOSIG
cycle: 4

Station Type Date Time Source
GMAD TAF 2019/10/20 18:31 UTC NOAA

TAF GMAD 201700Z 2018/2124 20008KT 8000 SCT020
BECMG 2111/2113 34016G28KT
BECMG 2118/2120 20008KT

Example: see airport list